createdAt,value
2019-03-29T00:01:58.414Z,9.40
2019-03-29T00:04:28.854Z,9.40
2019-03-29T00:06:59.228Z,9.50
2019-03-29T00:09:29.585Z,9.50
2019-03-29T00:11:59.969Z,9.50
2019-03-29T00:14:30.347Z,9.50
2019-03-29T00:17:00.734Z,9.50
2019-03-29T00:19:31.155Z,9.50
2019-03-29T00:22:01.504Z,9.50
2019-03-29T00:24:31.886Z,9.50
2019-03-29T00:27:02.251Z,9.50
2019-03-29T00:29:32.653Z,9.50
2019-03-29T00:32:03.019Z,9.50
2019-03-29T00:34:33.400Z,9.50
2019-03-29T00:37:03.818Z,9.50
2019-03-29T00:39:34.195Z,9.50
2019-03-29T00:42:04.557Z,9.50
2019-03-29T00:44:34.938Z,9.50
2019-03-29T00:47:05.317Z,9.50
2019-03-29T00:49:35.679Z,9.50
2019-03-29T00:52:06.038Z,9.50
2019-03-29T00:54:36.427Z,9.50
2019-03-29T00:57:06.788Z,9.60
2019-03-29T00:59:37.167Z,9.60
2019-03-29T01:02:07.563Z,9.60
2019-03-29T01:04:37.902Z,9.60
2019-03-29T01:07:08.370Z,9.60
2019-03-29T01:09:38.747Z,9.60
2019-03-29T01:12:09.107Z,9.60
2019-03-29T01:14:39.486Z,9.60
2019-03-29T01:17:09.845Z,9.60
2019-03-29T01:19:40.223Z,9.60
2019-03-29T01:22:10.579Z,9.60
2019-03-29T01:24:41.461Z,9.60
2019-03-29T01:27:12.607Z,9.60
2019-03-29T01:29:42.983Z,9.60
2019-03-29T01:32:13.349Z,9.60
2019-03-29T01:34:43.726Z,9.60
2019-03-29T01:37:14.083Z,9.60
2019-03-29T01:39:44.474Z,9.50
2019-03-29T01:42:14.831Z,9.50
2019-03-29T01:44:45.215Z,9.60
2019-03-29T01:47:15.582Z,9.60
2019-03-29T01:49:45.960Z,9.60
2019-03-29T01:52:16.325Z,9.60
2019-03-29T01:54:46.708Z,9.60
2019-03-29T01:57:17.080Z,9.60
2019-03-29T01:59:47.443Z,9.60
2019-03-29T02:02:17.963Z,9.60
2019-03-29T02:04:48.340Z,9.60
2019-03-29T02:07:18.707Z,9.60
2019-03-29T02:09:49.087Z,9.60
2019-03-29T02:12:19.451Z,9.60
2019-03-29T02:14:50.210Z,9.60
2019-03-29T02:17:21.242Z,9.60
2019-03-29T02:19:52.289Z,9.60
2019-03-29T02:22:22.648Z,9.60
2019-03-29T02:24:53.033Z,9.60
2019-03-29T02:27:23.396Z,9.60
2019-03-29T02:29:53.781Z,9.60
2019-03-29T02:32:25.145Z,9.60
2019-03-29T02:34:55.910Z,9.60
2019-03-29T02:37:26.271Z,9.60
2019-03-29T02:39:56.659Z,9.60
2019-03-29T02:42:28.683Z,9.60
2019-03-29T02:44:59.065Z,9.60
2019-03-29T02:47:29.426Z,9.60
2019-03-29T02:49:59.815Z,9.60
2019-03-29T02:52:30.183Z,9.60
2019-03-29T02:55:00.748Z,9.60
2019-03-29T02:57:31.151Z,9.60
2019-03-29T03:00:01.529Z,9.60
2019-03-29T03:02:33.172Z,9.60
2019-03-29T03:05:03.945Z,9.60
2019-03-29T03:07:34.281Z,9.60
2019-03-29T03:10:11.316Z,9.60
2019-03-29T03:12:41.670Z,9.60
2019-03-29T03:15:12.772Z,9.60
2019-03-29T03:17:43.163Z,9.60
2019-03-29T03:20:15.913Z,9.60
2019-03-29T03:22:46.401Z,9.60
2019-03-29T03:25:16.763Z,9.60
2019-03-29T03:27:47.158Z,9.60
2019-03-29T03:30:17.536Z,9.60
2019-03-29T03:32:47.933Z,9.60
2019-03-29T03:35:19.152Z,9.50
2019-03-29T03:37:49.542Z,9.50
2019-03-29T03:40:19.982Z,9.50
2019-03-29T03:42:50.637Z,9.50
2019-03-29T03:45:20.997Z,9.50
2019-03-29T03:47:51.388Z,9.50
2019-03-29T03:50:40.445Z,9.50
2019-03-29T03:53:11.962Z,9.50
2019-03-29T03:55:43.221Z,9.50
2019-03-29T03:58:13.686Z,9.50
2019-03-29T04:00:57.051Z,9.50
2019-03-29T04:03:28.042Z,9.50
2019-03-29T04:05:59.557Z,9.50
2019-03-29T04:08:29.948Z,9.50
2019-03-29T04:11:00.306Z,9.50
2019-03-29T04:13:30.732Z,9.50
2019-03-29T04:16:01.095Z,9.50
2019-03-29T04:18:31.472Z,9.50
2019-03-29T04:21:02.805Z,9.50
2019-03-29T04:23:33.203Z,9.40
2019-03-29T04:26:03.649Z,9.40
2019-03-29T04:28:35.052Z,9.40
2019-03-29T04:31:05.433Z,9.40
2019-03-29T04:33:35.824Z,9.40
2019-03-29T04:36:06.319Z,9.50
2019-03-29T04:38:36.864Z,9.50
2019-03-29T04:41:07.227Z,9.40
2019-03-29T04:43:37.612Z,9.40
2019-03-29T04:46:09.046Z,9.40
2019-03-29T04:48:51.759Z,9.40
2019-03-29T04:51:22.125Z,9.40
2019-03-29T04:53:52.521Z,9.40
2019-03-29T04:56:22.879Z,9.40
2019-03-29T04:58:53.272Z,9.40
2019-03-29T05:01:23.636Z,9.40
2019-03-29T05:03:54.015Z,9.40
2019-03-29T05:06:24.387Z,9.50
2019-03-29T05:08:54.777Z,9.40
2019-03-29T05:11:25.254Z,9.50
2019-03-29T05:13:55.647Z,9.50
2019-03-29T05:16:26.016Z,9.50
2019-03-29T05:18:56.411Z,9.50
2019-03-29T05:21:26.768Z,9.50
2019-03-29T05:23:57.158Z,9.50
2019-03-29T05:26:27.889Z,9.50
2019-03-29T05:28:58.273Z,9.50
2019-03-29T05:31:28.644Z,9.60
2019-03-29T05:33:59.036Z,9.60
2019-03-29T05:36:29.395Z,9.70
2019-03-29T05:39:00.762Z,9.70
2019-03-29T05:41:32.894Z,9.70
2019-03-29T05:44:03.287Z,9.80
2019-03-29T05:46:33.658Z,9.80
2019-03-29T05:49:04.050Z,9.80
2019-03-29T05:51:34.442Z,9.80
2019-03-29T05:54:04.823Z,9.90
2019-03-29T05:56:35.179Z,9.90
2019-03-29T05:59:05.578Z,9.90
2019-03-29T06:01:35.954Z,10.00
2019-03-29T06:04:06.361Z,10.00
2019-03-29T06:06:36.801Z,10.00
2019-03-29T06:09:07.480Z,10.10
2019-03-29T06:11:37.856Z,10.20
2019-03-29T06:14:08.254Z,10.20
2019-03-29T06:16:39.500Z,10.30
2019-03-29T06:19:10.975Z,10.30
2019-03-29T06:21:41.342Z,10.30
2019-03-29T06:24:11.742Z,10.40
2019-03-29T06:26:42.113Z,10.50
2019-03-29T06:29:12.500Z,10.40
2019-03-29T06:31:42.878Z,10.50
2019-03-29T06:34:13.272Z,10.50
2019-03-29T06:36:44.451Z,10.60
2019-03-29T06:39:15.651Z,10.60
2019-03-29T06:41:46.034Z,10.60
2019-03-29T06:44:16.441Z,10.70
2019-03-29T06:46:46.811Z,10.70
2019-03-29T06:49:17.211Z,10.80
2019-03-29T06:51:47.577Z,10.80
2019-03-29T06:54:18.071Z,10.80
2019-03-29T06:56:48.446Z,10.80
2019-03-29T06:59:18.855Z,10.80
2019-03-29T07:01:49.222Z,10.90
2019-03-29T07:04:19.622Z,10.90
2019-03-29T07:06:49.986Z,10.90
2019-03-29T07:09:20.382Z,11.00
2019-03-29T07:11:50.757Z,11.10
2019-03-29T07:14:21.154Z,11.10
2019-03-29T07:16:51.527Z,11.10
2019-03-29T07:19:21.990Z,11.10
2019-03-29T07:21:52.435Z,11.10
2019-03-29T07:24:22.884Z,11.00
2019-03-29T07:26:53.242Z,11.10
2019-03-29T07:29:23.643Z,11.10
2019-03-29T07:31:55.020Z,11.10
2019-03-29T07:34:25.391Z,11.20
2019-03-29T07:36:55.787Z,11.20
2019-03-29T07:39:26.167Z,11.20
2019-03-29T07:41:56.559Z,11.30
2019-03-29T07:44:26.934Z,11.30
2019-03-29T07:46:57.322Z,11.20
2019-03-29T07:49:27.699Z,11.30
2019-03-29T07:51:58.090Z,11.30
2019-03-29T07:54:28.463Z,11.30
2019-03-29T07:56:58.858Z,11.30
2019-03-29T07:59:29.223Z,11.40
2019-03-29T08:01:59.608Z,11.40
2019-03-29T08:04:29.973Z,11.40
2019-03-29T08:07:00.361Z,11.50
2019-03-29T08:09:30.817Z,11.50
2019-03-29T08:12:01.196Z,11.50
2019-03-29T08:14:31.564Z,11.60
2019-03-29T08:17:03.070Z,11.70
2019-03-29T08:19:33.444Z,11.70
2019-03-29T08:22:03.833Z,11.70
2019-03-29T08:24:34.207Z,11.70
2019-03-29T08:27:05.568Z,11.80
2019-03-29T08:29:35.949Z,11.80
2019-03-29T08:32:06.347Z,11.80
2019-03-29T08:34:36.720Z,11.80
2019-03-29T08:37:07.117Z,11.80
2019-03-29T08:39:37.491Z,11.80
2019-03-29T08:42:07.891Z,11.90
2019-03-29T08:44:38.257Z,11.90
2019-03-29T08:47:08.648Z,11.90
2019-03-29T08:49:39.020Z,11.90
2019-03-29T08:52:09.413Z,11.90
2019-03-29T08:54:39.815Z,11.90
2019-03-29T08:57:10.739Z,12.00
2019-03-29T08:59:41.371Z,12.10
2019-03-29T09:02:11.763Z,12.10
2019-03-29T09:04:42.339Z,12.20
2019-03-29T09:07:12.731Z,12.10
2019-03-29T09:09:46.239Z,12.10
2019-03-29T09:12:16.416Z,12.20
2019-03-29T09:14:46.808Z,12.30
2019-03-29T09:17:17.207Z,12.20
2019-03-29T09:19:47.864Z,12.30
2019-03-29T09:22:18.239Z,12.30
2019-03-29T09:24:48.639Z,12.40
2019-03-29T09:27:19.015Z,12.50
2019-03-29T09:29:49.411Z,12.50
2019-03-29T09:32:20.363Z,12.70
2019-03-29T09:34:50.739Z,12.70
2019-03-29T09:37:21.113Z,12.80
2019-03-29T09:39:51.504Z,12.80
2019-03-29T09:42:29.022Z,12.90
2019-03-29T09:44:54.129Z,12.90
2019-03-29T09:47:24.507Z,12.90
2019-03-29T09:49:54.896Z,12.90
2019-03-29T09:52:25.274Z,12.90
2019-03-29T09:54:55.667Z,12.90
2019-03-29T09:57:36.777Z,13.00
2019-03-29T09:59:58.134Z,13.20
2019-03-29T10:02:28.504Z,13.30
2019-03-29T10:04:58.903Z,13.40
2019-03-29T10:07:29.275Z,13.70
2019-03-29T10:09:59.668Z,13.80
2019-03-29T10:12:42.751Z,14.10
2019-03-29T10:15:02.417Z,14.30
2019-03-29T10:17:33.044Z,14.60
2019-03-29T10:20:04.298Z,14.70
2019-03-29T10:22:37.475Z,14.90
2019-03-29T10:25:19.087Z,15.00
2019-03-29T10:27:44.552Z,15.10
2019-03-29T10:30:19.533Z,15.10
2019-03-29T10:32:50.067Z,15.10
2019-03-29T10:35:20.468Z,15.00
2019-03-29T10:37:50.925Z,15.00
2019-03-29T10:40:21.908Z,15.00
2019-03-29T10:42:58.193Z,15.30
2019-03-29T10:45:24.784Z,15.20
2019-03-29T10:47:55.262Z,15.30
2019-03-29T10:50:37.446Z,15.20
2019-03-29T10:53:07.794Z,15.20
2019-03-29T10:55:38.188Z,15.00
2019-03-29T10:58:09.883Z,15.00
2019-03-29T11:00:41.645Z,15.00
2019-03-29T11:03:12.006Z,14.90
2019-03-29T11:05:42.390Z,14.80
2019-03-29T11:08:12.760Z,14.50
2019-03-29T11:10:43.321Z,14.30
2019-03-29T11:13:14.452Z,14.20
2019-03-29T11:15:46.054Z,14.00
2019-03-29T11:18:16.484Z,13.90
2019-03-29T11:20:46.962Z,13.90
2019-03-29T11:23:17.319Z,13.90
2019-03-29T11:25:48.816Z,14.10
2019-03-29T11:28:19.456Z,14.30
2019-03-29T11:30:49.847Z,14.50
2019-03-29T11:33:20.217Z,14.60
2019-03-29T11:35:50.623Z,14.70
2019-03-29T11:38:20.982Z,14.90
2019-03-29T11:40:51.366Z,15.00
2019-03-29T11:43:27.161Z,15.10
2019-03-29T11:45:53.816Z,15.00
2019-03-29T11:48:24.176Z,15.00
2019-03-29T11:50:54.566Z,15.10
2019-03-29T11:53:25.011Z,15.10
2019-03-29T11:55:55.379Z,15.10
2019-03-29T11:58:25.770Z,15.10
2019-03-29T12:00:57.203Z,15.10
2019-03-29T12:03:27.579Z,15.20
2019-03-29T12:05:57.936Z,15.00
2019-03-29T12:08:28.311Z,15.00
2019-03-29T12:10:58.668Z,15.00
2019-03-29T12:13:40.417Z,15.00
2019-03-29T12:16:01.289Z,14.90
2019-03-29T12:18:32.238Z,14.80
2019-03-29T12:21:02.605Z,14.70
2019-03-29T12:23:33.000Z,14.60
2019-03-29T12:26:03.437Z,14.60
2019-03-29T12:28:33.824Z,14.70
2019-03-29T12:31:05.322Z,14.70
2019-03-29T12:33:35.775Z,14.80
2019-03-29T12:36:06.213Z,14.90
2019-03-29T12:38:36.601Z,14.90
2019-03-29T12:41:06.976Z,14.90
2019-03-29T12:43:37.358Z,15.10
2019-03-29T12:46:07.720Z,15.20
2019-03-29T12:48:39.175Z,15.20
2019-03-29T12:51:09.603Z,15.40
2019-03-29T12:53:39.994Z,15.30
2019-03-29T12:56:10.351Z,15.20
2019-03-29T12:58:40.785Z,15.10
2019-03-29T13:01:11.214Z,15.00
2019-03-29T13:03:41.606Z,14.80
2019-03-29T13:06:11.980Z,14.70
2019-03-29T13:08:42.373Z,14.60
2019-03-29T13:11:12.734Z,14.50
2019-03-29T13:13:43.118Z,14.50
2019-03-29T13:16:13.484Z,14.40
2019-03-29T13:18:43.867Z,14.40
2019-03-29T13:21:14.236Z,14.40
2019-03-29T13:23:44.621Z,14.50
2019-03-29T13:26:14.979Z,14.50
2019-03-29T13:28:45.544Z,14.70
2019-03-29T13:31:15.910Z,14.80
2019-03-29T13:33:46.313Z,14.90
2019-03-29T13:36:16.679Z,14.80
2019-03-29T13:38:47.078Z,14.80
2019-03-29T13:41:17.434Z,14.80
2019-03-29T13:43:47.834Z,14.70
2019-03-29T13:46:18.238Z,14.70
2019-03-29T13:48:48.628Z,14.60
2019-03-29T13:51:19.018Z,14.50
2019-03-29T13:53:49.441Z,14.50
2019-03-29T13:56:19.777Z,14.60
2019-03-29T13:58:50.147Z,14.50
2019-03-29T14:01:20.552Z,14.50
2019-03-29T14:03:50.911Z,14.50
2019-03-29T14:06:21.295Z,14.60
2019-03-29T14:08:51.655Z,14.70
2019-03-29T14:11:22.031Z,14.70
2019-03-29T14:13:55.581Z,14.70
2019-03-29T14:16:26.042Z,14.80
2019-03-29T14:18:56.398Z,14.80
2019-03-29T14:21:26.795Z,14.80
2019-03-29T14:23:57.185Z,14.80
2019-03-29T14:26:27.611Z,14.80
2019-03-29T14:28:57.987Z,14.70
2019-03-29T14:31:29.455Z,14.70
2019-03-29T14:33:59.812Z,14.80
2019-03-29T14:36:30.207Z,14.70
2019-03-29T14:39:00.567Z,14.70
2019-03-29T14:41:32.642Z,14.70
2019-03-29T14:44:03.002Z,14.60
2019-03-29T14:46:33.393Z,14.60
2019-03-29T14:49:03.764Z,14.60
2019-03-29T14:51:34.273Z,14.70
2019-03-29T14:54:04.860Z,14.70
2019-03-29T14:56:35.254Z,14.80
2019-03-29T14:59:05.661Z,14.80
2019-03-29T15:01:36.050Z,14.80
2019-03-29T15:04:06.717Z,14.80
2019-03-29T15:06:49.074Z,14.70
2019-03-29T15:09:20.385Z,14.60
2019-03-29T15:11:50.782Z,14.60
2019-03-29T15:14:23.159Z,14.60
2019-03-29T15:16:53.314Z,14.60
2019-03-29T15:19:23.773Z,14.60
2019-03-29T15:21:54.228Z,14.60
2019-03-29T15:24:24.599Z,14.50
2019-03-29T15:26:54.994Z,14.40
2019-03-29T15:29:25.382Z,14.40
2019-03-29T15:32:08.388Z,14.40
2019-03-29T15:34:38.743Z,14.30
2019-03-29T15:37:10.141Z,14.30
2019-03-29T15:39:40.716Z,14.30
2019-03-29T15:44:41.299Z,14.10
2019-03-29T15:47:14.925Z,14.00
2019-03-29T15:49:55.300Z,14.00
2019-03-29T15:52:17.427Z,13.90
2019-03-29T15:54:47.802Z,13.80
2019-03-29T15:57:18.240Z,13.70
2019-03-29T15:59:48.555Z,13.70
2019-03-29T16:02:18.960Z,13.70
2019-03-29T16:04:49.321Z,13.70
2019-03-29T16:07:19.732Z,13.70
2019-03-29T16:09:50.089Z,13.60
2019-03-29T16:12:20.719Z,13.60
2019-03-29T16:14:51.087Z,13.50
2019-03-29T16:17:21.866Z,13.50
2019-03-29T16:19:52.335Z,13.40
2019-03-29T16:22:22.792Z,13.40
2019-03-29T16:24:54.320Z,13.40
2019-03-29T16:27:25.501Z,13.30
2019-03-29T16:29:55.986Z,13.30
2019-03-29T16:32:26.568Z,13.20
2019-03-29T16:34:57.046Z,13.10
2019-03-29T16:37:27.446Z,13.10
2019-03-29T16:39:58.784Z,12.90
2019-03-29T16:42:29.174Z,12.80
2019-03-29T16:44:59.536Z,12.80
2019-03-29T16:47:29.948Z,12.80
2019-03-29T16:50:00.408Z,12.70
2019-03-29T16:52:30.867Z,12.60
2019-03-29T16:55:12.425Z,12.60
2019-03-29T16:57:33.368Z,12.60
2019-03-29T17:00:12.138Z,12.60
2019-03-29T17:02:41.538Z,12.50
2019-03-29T17:05:13.236Z,12.50
2019-03-29T17:07:43.656Z,12.50
2019-03-29T17:10:33.422Z,12.40
2019-03-29T17:13:03.818Z,12.30
2019-03-29T17:15:35.251Z,12.30
2019-03-29T17:18:05.818Z,12.20
2019-03-29T17:20:36.183Z,12.10
2019-03-29T17:23:06.576Z,12.10
2019-03-29T17:25:36.940Z,12.10
2019-03-29T17:28:07.466Z,12.00
2019-03-29T17:30:42.755Z,12.00
2019-03-29T17:33:13.211Z,11.90
2019-03-29T17:35:43.579Z,11.90
2019-03-29T17:38:13.975Z,11.80
2019-03-29T17:40:44.350Z,11.70
2019-03-29T17:43:16.334Z,11.70
2019-03-29T17:45:46.689Z,11.70
2019-03-29T17:48:17.951Z,11.60
2019-03-29T17:50:48.323Z,11.50
2019-03-29T17:53:18.775Z,11.40
2019-03-29T17:55:49.174Z,11.30
2019-03-29T17:58:19.541Z,11.20
2019-03-29T18:00:50.206Z,11.00
2019-03-29T18:03:20.663Z,10.80
2019-03-29T18:05:51.058Z,10.70
2019-03-29T18:08:21.449Z,10.50
2019-03-29T18:10:51.835Z,10.30
2019-03-29T18:13:22.199Z,10.20
2019-03-29T18:15:52.630Z,10.00
2019-03-29T18:18:22.983Z,9.90
2019-03-29T18:20:53.548Z,9.70
2019-03-29T18:23:25.098Z,9.60
2019-03-29T18:25:56.797Z,9.50
2019-03-29T18:28:27.322Z,9.40
2019-03-29T18:30:57.833Z,9.30
2019-03-29T18:33:29.142Z,9.20
2019-03-29T18:35:59.516Z,9.10
2019-03-29T18:38:31.276Z,8.90
2019-03-29T18:41:01.707Z,8.80
2019-03-29T18:43:32.138Z,8.70
2019-03-29T18:46:02.515Z,8.70
2019-03-29T18:48:32.947Z,8.60
2019-03-29T18:51:03.340Z,8.40
2019-03-29T18:53:33.709Z,8.40
2019-03-29T18:56:04.284Z,8.30
2019-03-29T18:58:34.645Z,8.20
2019-03-29T19:01:06.312Z,8.10
2019-03-29T19:03:41.862Z,8.10
2019-03-29T19:58:14.993Z,6.90
2019-03-29T20:00:45.485Z,6.80
2019-03-29T20:03:15.992Z,6.80
2019-03-29T20:05:46.314Z,6.80
2019-03-29T20:08:16.703Z,6.70
2019-03-29T20:10:47.069Z,6.70
2019-03-29T20:13:17.457Z,6.60
2019-03-29T20:15:47.865Z,6.60
2019-03-29T20:18:18.250Z,6.50
2019-03-29T20:20:48.635Z,6.50
2019-03-29T20:23:19.012Z,6.50
2019-03-29T20:25:49.376Z,6.40
2019-03-29T20:28:19.777Z,6.40
2019-03-29T20:30:50.130Z,6.40
2019-03-29T20:33:20.526Z,6.40
2019-03-29T20:35:50.887Z,6.30
2019-03-29T20:38:21.450Z,6.30
2019-03-29T20:40:51.801Z,6.20
2019-03-29T20:43:22.189Z,6.20
2019-03-29T20:45:52.546Z,6.10
2019-03-29T20:48:22.979Z,6.10
2019-03-29T20:50:53.338Z,6.10
2019-03-29T20:53:23.726Z,6.00
2019-03-29T20:55:54.090Z,6.00
2019-03-29T20:58:24.484Z,6.00
2019-03-29T21:00:54.830Z,5.90
2019-03-29T21:03:25.262Z,5.90
2019-03-29T21:05:55.616Z,5.90
2019-03-29T21:08:26.027Z,5.80
2019-03-29T21:10:57.427Z,5.80
2019-03-29T21:13:27.938Z,5.80
2019-03-29T21:15:58.362Z,5.80
2019-03-29T21:18:32.145Z,5.80
2019-03-29T21:21:02.541Z,5.80
2019-03-29T21:23:33.015Z,5.70
2019-03-29T21:26:03.451Z,5.70
2019-03-29T21:28:35.971Z,5.70
2019-03-29T21:31:06.363Z,5.70
2019-03-29T21:33:36.846Z,5.60
2019-03-29T21:36:07.226Z,5.60
2019-03-29T21:38:37.797Z,5.60
2019-03-29T21:41:08.192Z,5.60
2019-03-29T21:43:38.651Z,5.60
2019-03-29T21:46:09.020Z,5.60
2019-03-29T21:48:39.594Z,5.60
2019-03-29T21:51:09.977Z,5.60
2019-03-29T21:53:43.990Z,5.50
2019-03-29T21:56:14.432Z,5.50
2019-03-29T21:58:48.356Z,5.50
2019-03-29T22:01:19.064Z,5.50
2019-03-29T22:03:49.564Z,5.50
2019-03-29T22:06:20.132Z,5.50
2019-03-29T22:08:50.576Z,5.50
2019-03-29T22:11:21.041Z,5.50
2019-03-29T22:13:51.647Z,5.50
2019-03-29T22:16:22.218Z,5.40
2019-03-29T22:18:53.811Z,5.50
2019-03-29T22:21:24.421Z,5.40
2019-03-29T22:23:54.909Z,5.40
2019-03-29T22:26:25.343Z,5.40
2019-03-29T22:28:55.821Z,5.40
2019-03-29T22:31:38.319Z,5.30
2019-03-29T22:34:08.870Z,5.30
2019-03-29T22:36:39.417Z,5.30
2019-03-29T22:39:09.981Z,5.30
2019-03-29T22:41:40.434Z,5.20
2019-03-29T22:44:10.885Z,5.20
2019-03-29T22:46:41.442Z,5.20
2019-03-29T22:49:11.903Z,5.10
2019-03-29T22:51:42.346Z,5.10
2019-03-29T22:54:12.870Z,5.10
2019-03-29T22:56:43.308Z,5.10
2019-03-29T22:59:13.751Z,5.00
2019-03-29T23:01:47.071Z,5.00
2019-03-29T23:04:17.482Z,5.00
2019-03-29T23:06:47.917Z,4.90
2019-03-29T23:09:18.279Z,5.00
2019-03-29T23:11:48.642Z,4.90
2019-03-29T23:14:19.028Z,4.90
2019-03-29T23:16:49.485Z,4.90
2019-03-29T23:19:19.862Z,4.80
2019-03-29T23:21:50.214Z,4.80
2019-03-29T23:24:20.606Z,4.80
2019-03-29T23:26:50.987Z,4.70
2019-03-29T23:29:21.506Z,4.70
2019-03-29T23:31:51.881Z,4.70
2019-03-29T23:34:22.244Z,4.70
2019-03-29T23:36:52.627Z,4.60
2019-03-29T23:39:22.987Z,4.60
2019-03-29T23:41:53.374Z,4.60
2019-03-29T23:44:23.735Z,4.60
2019-03-29T23:46:54.115Z,4.60
2019-03-29T23:49:24.518Z,4.50
2019-03-29T23:51:54.910Z,4.50
2019-03-29T23:54:25.267Z,4.50
2019-03-29T23:56:55.662Z,4.50
2019-03-29T23:59:27.198Z,4.50
